createdAt,value
2017-09-09T00:01:05.732Z,15.10
2017-09-09T00:03:33.350Z,15.00
2017-09-09T00:06:01.033Z,15.00
2017-09-09T00:08:28.655Z,15.00
2017-09-09T00:10:56.320Z,14.90
2017-09-09T00:13:23.941Z,14.90
2017-09-09T00:15:51.566Z,14.90
2017-09-09T00:18:19.224Z,14.90
2017-09-09T00:20:46.853Z,14.90
2017-09-09T00:23:14.521Z,14.90
2017-09-09T00:25:42.156Z,14.80
2017-09-09T00:28:09.804Z,14.90
2017-09-09T00:30:37.451Z,14.80
2017-09-09T00:33:05.067Z,14.80
2017-09-09T00:35:32.731Z,14.80
2017-09-09T00:38:00.360Z,14.90
2017-09-09T00:40:27.979Z,14.90
2017-09-09T00:42:55.650Z,14.90
2017-09-09T00:45:23.280Z,14.90
2017-09-09T00:47:50.944Z,15.00
2017-09-09T00:50:18.577Z,15.00
2017-09-09T00:52:46.196Z,15.00
2017-09-09T00:55:13.849Z,14.90
2017-09-09T00:57:41.487Z,14.90
2017-09-09T01:00:09.143Z,15.00
2017-09-09T01:02:36.767Z,14.90
2017-09-09T01:05:04.408Z,14.90
2017-09-09T01:07:32.067Z,15.00
2017-09-09T01:09:59.697Z,15.00
2017-09-09T01:12:27.355Z,15.00
2017-09-09T01:14:54.984Z,15.00
2017-09-09T01:17:22.612Z,15.00
2017-09-09T01:19:50.260Z,15.00
2017-09-09T01:22:17.884Z,15.20
2017-09-09T01:24:45.547Z,15.10
2017-09-09T01:27:13.170Z,15.20
2017-09-09T01:29:40.804Z,15.20
2017-09-09T01:32:08.461Z,15.30
2017-09-09T01:34:36.088Z,15.20
2017-09-09T01:37:04.519Z,15.30
2017-09-09T01:39:32.141Z,15.20
2017-09-09T01:41:59.758Z,15.20
2017-09-09T01:44:27.404Z,15.40
2017-09-09T01:46:55.024Z,15.40
2017-09-09T01:49:22.681Z,15.40
2017-09-09T01:51:50.299Z,15.50
2017-09-09T01:54:17.932Z,15.50
2017-09-09T01:56:45.588Z,15.60
2017-09-09T01:59:13.217Z,15.60
2017-09-09T02:01:40.885Z,15.50
2017-09-09T02:04:08.519Z,15.60
2017-09-09T02:06:36.145Z,15.60
2017-09-09T02:09:03.803Z,15.60
2017-09-09T02:11:31.419Z,15.60
2017-09-09T02:13:59.068Z,15.60
2017-09-09T02:16:26.693Z,15.60
2017-09-09T02:18:54.308Z,15.60
2017-09-09T02:21:21.955Z,15.60
2017-09-09T02:23:49.576Z,15.50
2017-09-09T02:26:17.237Z,15.40
2017-09-09T02:28:44.859Z,15.40
2017-09-09T02:31:12.487Z,15.40
2017-09-09T02:33:40.139Z,15.40
2017-09-09T02:36:07.759Z,15.30
2017-09-09T02:38:35.432Z,15.30
2017-09-09T02:41:03.051Z,15.30
2017-09-09T02:43:30.673Z,15.40
2017-09-09T02:45:58.329Z,15.40
2017-09-09T02:48:25.958Z,15.40
2017-09-09T02:50:53.620Z,15.50
2017-09-09T02:53:21.245Z,15.40
2017-09-09T02:55:48.863Z,15.50
2017-09-09T02:58:16.512Z,15.50
2017-09-09T03:00:44.140Z,15.60
2017-09-09T03:03:11.796Z,15.50
2017-09-09T03:05:39.425Z,15.50
2017-09-09T03:08:07.811Z,15.50
2017-09-09T03:10:35.461Z,15.50
2017-09-09T03:13:03.090Z,15.50
2017-09-09T03:15:30.753Z,15.60
2017-09-09T03:17:58.380Z,15.60
2017-09-09T03:20:26.005Z,15.50
2017-09-09T03:22:53.651Z,15.50
2017-09-09T03:25:21.276Z,15.50
2017-09-09T03:27:48.944Z,15.40
2017-09-09T03:30:16.696Z,15.50
2017-09-09T03:32:44.316Z,15.50
2017-09-09T03:35:11.966Z,15.50
2017-09-09T03:37:39.587Z,15.40
2017-09-09T03:40:07.244Z,15.40
2017-09-09T03:42:34.860Z,15.20
2017-09-09T03:45:02.487Z,15.20
2017-09-09T03:47:30.136Z,15.10
2017-09-09T03:49:58.524Z,14.90
2017-09-09T03:52:26.183Z,14.90
2017-09-09T03:54:53.811Z,14.90
2017-09-09T03:57:21.441Z,14.80
2017-09-09T03:59:49.092Z,14.80
2017-09-09T04:02:16.732Z,14.80
2017-09-09T04:04:44.396Z,14.80
2017-09-09T04:07:12.019Z,14.70
2017-09-09T04:09:39.642Z,14.70
2017-09-09T04:12:07.285Z,14.70
2017-09-09T04:14:34.907Z,14.70
2017-09-09T04:17:02.565Z,14.60
2017-09-09T04:19:30.191Z,14.60
2017-09-09T04:21:57.811Z,14.60
2017-09-09T04:24:25.469Z,14.50
2017-09-09T04:26:53.099Z,14.50
2017-09-09T04:29:20.756Z,14.60
2017-09-09T04:31:48.395Z,14.70
2017-09-09T04:34:16.016Z,14.70
2017-09-09T04:36:43.666Z,14.70
2017-09-09T04:39:11.291Z,14.70
2017-09-09T04:41:38.958Z,14.80
2017-09-09T04:44:06.583Z,14.80
2017-09-09T04:46:34.207Z,14.70
2017-09-09T04:49:01.856Z,14.60
2017-09-09T04:51:29.491Z,14.50
2017-09-09T04:53:57.155Z,14.40
2017-09-09T04:56:24.776Z,14.30
2017-09-09T04:58:52.482Z,14.20
2017-09-09T05:01:20.131Z,14.20
2017-09-09T05:03:47.756Z,14.20
2017-09-09T05:06:15.423Z,14.20
2017-09-09T05:08:43.044Z,14.20
2017-09-09T05:11:10.696Z,14.30
2017-09-09T05:13:38.341Z,14.30
2017-09-09T05:16:05.972Z,14.30
2017-09-09T05:18:33.635Z,14.30
2017-09-09T05:21:01.259Z,14.30
2017-09-09T05:23:28.915Z,14.30
2017-09-09T05:25:56.567Z,14.30
2017-09-09T05:28:24.192Z,14.30
2017-09-09T05:30:51.852Z,14.30
2017-09-09T05:33:19.472Z,14.50
2017-09-09T05:35:47.094Z,14.70
2017-09-09T05:38:14.739Z,14.90
2017-09-09T05:40:42.358Z,15.00
2017-09-09T05:43:10.020Z,15.10
2017-09-09T05:45:37.660Z,15.20
2017-09-09T05:48:05.299Z,15.30
2017-09-09T05:50:32.958Z,15.50
2017-09-09T05:53:01.075Z,15.60
2017-09-09T05:55:29.620Z,15.90
2017-09-09T05:57:58.256Z,15.80
2017-09-09T06:00:25.897Z,15.90
2017-09-09T06:02:53.555Z,16.10
2017-09-09T06:05:21.176Z,16.20
2017-09-09T06:07:48.843Z,16.20
2017-09-09T06:10:16.477Z,16.30
2017-09-09T06:12:44.148Z,16.40
2017-09-09T06:15:11.846Z,16.40
2017-09-09T06:17:39.475Z,16.50
2017-09-09T06:20:07.147Z,16.40
2017-09-09T06:22:34.768Z,16.50
2017-09-09T06:25:03.406Z,16.40
2017-09-09T06:27:31.077Z,16.40
2017-09-09T06:29:58.739Z,16.30
2017-09-09T06:32:26.427Z,16.30
2017-09-09T06:34:54.075Z,16.30
2017-09-09T06:37:21.964Z,16.50
2017-09-09T06:39:49.634Z,16.40
2017-09-09T06:42:17.352Z,16.50
2017-09-09T06:44:45.028Z,16.70
2017-09-09T06:47:12.656Z,17.20
2017-09-09T06:49:40.267Z,17.70
2017-09-09T06:52:07.904Z,18.60
2017-09-09T06:54:35.515Z,19.30
2017-09-09T06:57:03.177Z,19.70
2017-09-09T06:59:30.780Z,20.40
2017-09-09T07:01:58.387Z,19.90
2017-09-09T07:04:26.035Z,19.40
2017-09-09T07:06:53.652Z,18.70
2017-09-09T07:09:21.295Z,18.40
2017-09-09T07:11:48.900Z,18.30
2017-09-09T07:14:16.518Z,18.40
2017-09-09T07:16:44.140Z,19.00
2017-09-09T07:19:13.110Z,19.50
2017-09-09T07:21:40.751Z,20.30
2017-09-09T07:24:08.373Z,20.80
2017-09-09T07:26:35.975Z,21.50
2017-09-09T07:29:03.601Z,22.00
2017-09-09T07:31:31.211Z,22.10
2017-09-09T07:33:59.612Z,22.90
2017-09-09T07:36:27.221Z,22.80
2017-09-09T07:38:55.598Z,21.70
2017-09-09T07:41:23.232Z,21.60
2017-09-09T07:43:50.847Z,21.40
2017-09-09T07:46:19.335Z,21.30
2017-09-09T07:48:47.817Z,21.10
2017-09-09T07:51:15.526Z,21.30
2017-09-09T07:53:43.157Z,21.30
2017-09-09T07:56:10.759Z,21.00
2017-09-09T07:58:38.394Z,21.10
2017-09-09T08:01:06.009Z,21.60
2017-09-09T08:03:33.620Z,21.60
2017-09-09T08:06:01.250Z,22.10
2017-09-09T08:08:28.851Z,22.60
2017-09-09T08:10:56.533Z,22.60
2017-09-09T08:13:24.141Z,22.70
2017-09-09T08:15:51.749Z,22.40
2017-09-09T08:18:19.386Z,22.60
2017-09-09T08:20:46.984Z,22.90
2017-09-09T08:23:14.635Z,21.60
2017-09-09T08:25:42.247Z,21.20
2017-09-09T08:28:09.851Z,21.20
2017-09-09T08:30:37.491Z,21.50
2017-09-09T08:33:05.087Z,21.90
2017-09-09T08:35:32.731Z,22.40
2017-09-09T08:38:00.335Z,22.60
2017-09-09T08:40:28.040Z,22.00
2017-09-09T08:42:55.673Z,22.30
2017-09-09T08:45:23.268Z,22.00
2017-09-09T08:47:50.911Z,22.10
2017-09-09T08:50:18.508Z,22.50
2017-09-09T08:52:46.115Z,22.90
2017-09-09T08:55:13.744Z,22.90
2017-09-09T08:57:41.351Z,22.30
2017-09-09T09:00:08.992Z,22.40
2017-09-09T09:02:36.595Z,22.90
2017-09-09T09:05:04.208Z,22.60
2017-09-09T09:07:31.843Z,22.50
2017-09-09T09:09:59.453Z,22.60
2017-09-09T09:12:27.092Z,22.70
2017-09-09T09:14:54.698Z,22.50
2017-09-09T09:17:22.305Z,22.10
2017-09-09T09:19:49.945Z,22.10
2017-09-09T09:22:17.553Z,22.00
2017-09-09T09:24:45.201Z,21.90
2017-09-09T09:27:12.804Z,21.70
2017-09-09T09:29:40.407Z,21.50
2017-09-09T09:32:08.040Z,21.20
2017-09-09T09:34:35.647Z,21.50
2017-09-09T09:37:03.295Z,21.30
2017-09-09T09:39:30.910Z,21.30
2017-09-09T09:41:58.525Z,21.30
2017-09-09T09:44:26.160Z,21.40
2017-09-09T09:46:53.768Z,21.50
2017-09-09T09:49:21.404Z,21.60
2017-09-09T09:51:49.011Z,21.70
2017-09-09T09:54:16.624Z,21.80
2017-09-09T09:56:44.256Z,22.10
2017-09-09T09:59:11.863Z,21.80
2017-09-09T10:01:39.511Z,21.60
2017-09-09T10:04:07.113Z,21.60
2017-09-09T10:06:34.723Z,21.80
2017-09-09T10:09:02.347Z,21.60
2017-09-09T10:11:29.961Z,21.50
2017-09-09T10:13:57.600Z,21.40
2017-09-09T10:16:25.208Z,21.20
2017-09-09T10:18:52.984Z,21.30
2017-09-09T10:21:20.613Z,21.20
2017-09-09T10:23:48.208Z,21.10
2017-09-09T10:26:15.852Z,21.20
2017-09-09T10:28:43.456Z,21.10
2017-09-09T10:31:11.055Z,21.20
2017-09-09T10:33:38.675Z,21.00
2017-09-09T10:36:06.398Z,21.00
2017-09-09T10:38:33.995Z,21.30
2017-09-09T10:41:02.389Z,21.10
2017-09-09T10:43:29.992Z,21.10
2017-09-09T10:45:57.596Z,21.20
2017-09-09T10:48:25.219Z,21.20
2017-09-09T10:50:52.835Z,20.90
2017-09-09T10:53:20.440Z,20.90
2017-09-09T10:55:48.061Z,20.90
2017-09-09T10:58:15.664Z,21.10
2017-09-09T11:00:43.267Z,21.00
2017-09-09T11:03:10.906Z,21.00
2017-09-09T11:05:38.514Z,21.00
2017-09-09T11:08:06.884Z,21.10
2017-09-09T11:10:34.512Z,21.10
2017-09-09T11:13:02.164Z,20.90
2017-09-09T11:15:29.788Z,20.80
2017-09-09T11:17:57.422Z,20.80
2017-09-09T11:20:25.039Z,20.80
2017-09-09T11:22:52.670Z,20.70
2017-09-09T11:25:20.317Z,20.70
2017-09-09T11:27:47.927Z,20.60
2017-09-09T11:30:15.528Z,20.50
2017-09-09T11:32:43.168Z,20.40
2017-09-09T11:35:10.771Z,20.50
2017-09-09T11:37:38.378Z,20.50
2017-09-09T11:40:05.999Z,20.60
2017-09-09T11:42:33.604Z,20.50
2017-09-09T11:45:01.273Z,20.60
2017-09-09T11:47:28.923Z,20.50
2017-09-09T11:49:56.544Z,20.60
2017-09-09T11:52:24.160Z,20.60
2017-09-09T11:54:51.755Z,20.70
2017-09-09T11:57:19.402Z,20.80
2017-09-09T11:59:47.006Z,21.00
2017-09-09T12:02:14.623Z,21.10
2017-09-09T12:04:42.264Z,21.20
2017-09-09T12:07:09.872Z,21.20
2017-09-09T12:09:37.543Z,21.20
2017-09-09T12:12:05.307Z,21.10
2017-09-09T12:14:32.908Z,21.20
2017-09-09T12:17:00.564Z,21.30
2017-09-09T12:19:28.184Z,21.20
2017-09-09T12:21:55.830Z,21.20
2017-09-09T12:24:23.448Z,21.20
2017-09-09T12:26:51.052Z,21.20
2017-09-09T12:29:18.704Z,21.30
2017-09-09T12:31:46.320Z,21.40
2017-09-09T12:34:14.271Z,21.50
2017-09-09T12:36:41.883Z,21.50
2017-09-09T12:39:18.485Z,21.50
2017-09-09T12:41:46.908Z,21.50
2017-09-09T12:44:14.555Z,21.40
2017-09-09T12:46:42.193Z,21.60
2017-09-09T12:49:09.818Z,21.50
2017-09-09T12:51:37.460Z,21.40
2017-09-09T12:54:05.066Z,21.30
2017-09-09T12:56:33.084Z,21.30
2017-09-09T12:59:00.687Z,21.40
2017-09-09T13:01:28.338Z,21.40
2017-09-09T13:03:57.408Z,21.40
2017-09-09T13:06:25.032Z,21.40
2017-09-09T13:08:52.667Z,21.40
2017-09-09T13:11:20.272Z,21.50
2017-09-09T13:13:47.883Z,21.40
2017-09-09T13:16:15.515Z,21.40
2017-09-09T13:18:43.121Z,21.30
2017-09-09T13:21:10.767Z,21.20
2017-09-09T13:23:38.392Z,21.10
2017-09-09T13:26:06.008Z,21.00
2017-09-09T13:28:33.636Z,20.90
2017-09-09T13:31:01.252Z,20.80
2017-09-09T13:33:28.924Z,20.90
2017-09-09T13:35:56.540Z,20.80
2017-09-09T13:38:24.174Z,20.90
2017-09-09T13:40:51.885Z,20.80
2017-09-09T13:43:19.512Z,20.70
2017-09-09T13:45:47.169Z,20.70
2017-09-09T13:48:14.792Z,20.70
2017-09-09T13:50:42.401Z,20.70
2017-09-09T13:53:10.024Z,20.60
2017-09-09T13:55:37.654Z,20.60
2017-09-09T13:58:05.335Z,20.60
2017-09-09T14:00:33.005Z,20.50
2017-09-09T14:03:01.081Z,20.50
2017-09-09T14:05:29.295Z,20.50
2017-09-09T14:07:57.191Z,20.30
2017-09-09T14:10:24.839Z,20.30
2017-09-09T14:12:52.567Z,20.20
2017-09-09T14:15:20.516Z,20.20
2017-09-09T14:17:48.624Z,20.10
2017-09-09T14:20:16.267Z,20.00
2017-09-09T14:22:43.983Z,19.90
2017-09-09T14:25:15.690Z,19.80
2017-09-09T14:27:45.242Z,19.80
2017-09-09T14:30:12.961Z,19.70
2017-09-09T14:32:40.567Z,19.60
2017-09-09T14:35:08.242Z,19.60
2017-09-09T14:37:35.880Z,19.50
2017-09-09T14:40:03.515Z,19.40
2017-09-09T14:42:31.128Z,19.40
2017-09-09T14:44:58.732Z,19.30
2017-09-09T14:47:26.367Z,19.10
2017-09-09T14:49:53.976Z,19.00
2017-09-09T14:52:21.629Z,18.90
2017-09-09T14:54:49.264Z,18.70
2017-09-09T14:57:16.894Z,18.70
2017-09-09T14:59:44.532Z,18.70
2017-09-09T15:02:12.140Z,18.60
2017-09-09T15:04:40.554Z,18.60
2017-09-09T15:07:08.231Z,18.60
2017-09-09T15:09:35.907Z,18.50
2017-09-09T15:12:03.527Z,18.40
2017-09-09T15:14:31.123Z,18.40
2017-09-09T15:16:58.747Z,18.20
2017-09-09T15:19:26.347Z,18.10
2017-09-09T15:21:53.947Z,17.90
2017-09-09T15:24:21.586Z,17.80
2017-09-09T15:26:49.225Z,17.80
2017-09-09T15:29:16.887Z,17.70
2017-09-09T15:31:44.495Z,17.60
2017-09-09T15:34:12.130Z,17.60
2017-09-09T15:36:39.801Z,17.40
2017-09-09T15:39:08.462Z,17.30
2017-09-09T15:41:36.268Z,17.30
2017-09-09T15:44:03.957Z,17.20
2017-09-09T15:46:31.617Z,17.10
2017-09-09T15:48:59.284Z,17.10
2017-09-09T15:51:27.303Z,17.00
2017-09-09T15:53:54.988Z,16.90
2017-09-09T15:56:22.617Z,16.90
2017-09-09T15:58:50.337Z,16.90
2017-09-09T16:01:17.995Z,16.80
2017-09-09T16:03:45.644Z,16.90
2017-09-09T16:06:13.338Z,16.80
2017-09-09T16:08:41.016Z,16.80
2017-09-09T16:11:08.672Z,16.80
2017-09-09T16:13:37.137Z,16.90
2017-09-09T16:16:04.791Z,16.80
2017-09-09T16:18:33.641Z,16.90
2017-09-09T16:21:01.270Z,16.80
2017-09-09T16:23:28.891Z,16.80
2017-09-09T16:25:56.585Z,16.70
2017-09-09T16:28:24.211Z,16.60
2017-09-09T16:30:51.887Z,16.60
2017-09-09T16:33:19.508Z,16.50
2017-09-09T16:35:47.152Z,16.60
2017-09-09T16:38:15.042Z,16.60
2017-09-09T16:40:42.848Z,16.60
2017-09-09T16:43:11.050Z,16.50
2017-09-09T16:45:38.677Z,16.60
2017-09-09T16:48:06.311Z,16.60
2017-09-09T16:50:33.963Z,16.60
2017-09-09T16:53:01.602Z,16.60
2017-09-09T16:55:29.277Z,16.60
2017-09-09T16:57:56.916Z,16.60
2017-09-09T17:00:24.555Z,16.50
2017-09-09T17:02:52.225Z,16.50
2017-09-09T17:05:19.856Z,16.40
2017-09-09T17:07:47.698Z,16.50
2017-09-09T17:10:15.334Z,16.40
2017-09-09T17:12:42.959Z,16.30
2017-09-09T17:15:10.620Z,16.30
2017-09-09T17:17:38.371Z,16.30
2017-09-09T17:20:06.060Z,16.30
2017-09-09T17:22:33.687Z,16.30
2017-09-09T17:25:01.316Z,16.20
2017-09-09T17:27:37.378Z,16.20
2017-09-09T17:30:12.706Z,16.20
2017-09-09T17:32:52.388Z,16.10
2017-09-09T17:35:31.027Z,16.10
2017-09-09T17:38:05.493Z,16.00
2017-09-09T17:40:34.000Z,16.00
2017-09-09T17:43:09.753Z,15.90
2017-09-09T17:45:46.580Z,15.90
2017-09-09T17:48:24.601Z,15.80
2017-09-09T17:51:00.977Z,15.90
2017-09-09T17:53:39.660Z,15.90
2017-09-09T17:56:16.024Z,15.80
2017-09-09T17:58:52.758Z,15.80
2017-09-09T18:01:28.635Z,15.70
2017-09-09T18:04:06.441Z,15.80
2017-09-09T18:06:42.725Z,15.70
2017-09-09T18:09:21.256Z,15.70
2017-09-09T18:11:55.245Z,15.60
2017-09-09T18:14:23.458Z,15.70
2017-09-09T18:16:51.139Z,15.60
2017-09-09T18:19:18.769Z,15.70
2017-09-09T18:21:46.442Z,15.70
2017-09-09T18:24:14.348Z,15.80
2017-09-09T18:26:42.017Z,15.80
2017-09-09T18:29:09.739Z,15.80
2017-09-09T18:31:37.386Z,15.80
2017-09-09T18:34:05.047Z,15.80
2017-09-09T18:36:32.666Z,15.80
2017-09-09T18:39:00.341Z,15.90
2017-09-09T18:41:27.971Z,15.90
2017-09-09T18:43:55.604Z,15.90
2017-09-09T18:46:23.264Z,15.90
2017-09-09T18:48:54.104Z,16.00
2017-09-09T18:51:28.125Z,16.00
2017-09-09T18:53:55.778Z,16.00
2017-09-09T18:56:23.439Z,15.90
2017-09-09T18:58:51.092Z,15.80
2017-09-09T19:01:18.739Z,15.90
2017-09-09T19:03:46.391Z,16.00
2017-09-09T19:06:14.027Z,16.10
2017-09-09T19:08:41.780Z,16.10
2017-09-09T19:11:09.415Z,16.10
2017-09-09T19:13:37.040Z,16.10
2017-09-09T19:16:04.697Z,16.10
2017-09-09T19:18:32.355Z,16.00
2017-09-09T19:21:00.785Z,16.00
2017-09-09T19:23:28.411Z,16.00
2017-09-09T19:25:56.059Z,16.00
2017-09-09T19:28:23.719Z,16.00
2017-09-09T19:30:51.355Z,16.10
2017-09-09T19:33:19.043Z,16.00
2017-09-09T19:35:46.675Z,16.00
2017-09-09T19:38:14.307Z,16.00
2017-09-09T19:40:41.964Z,16.00
2017-09-09T19:43:09.601Z,16.00
2017-09-09T19:45:37.268Z,16.00
2017-09-09T19:48:04.896Z,16.00
2017-09-09T19:50:32.527Z,16.10
2017-09-09T19:53:00.188Z,16.00
2017-09-09T19:55:27.815Z,16.10
2017-09-09T19:57:55.483Z,16.00
2017-09-09T20:00:23.152Z,16.00
2017-09-09T20:02:50.776Z,16.00
2017-09-09T20:05:18.446Z,16.10
2017-09-09T20:07:46.079Z,16.10
2017-09-09T20:10:13.747Z,16.10
2017-09-09T20:12:41.371Z,15.90
2017-09-09T20:15:10.357Z,15.90
2017-09-09T20:17:47.022Z,15.90
2017-09-09T20:20:15.097Z,15.80
2017-09-09T20:22:42.759Z,15.80
2017-09-09T20:25:10.376Z,15.80
2017-09-09T20:27:38.007Z,15.80
2017-09-09T20:30:05.737Z,15.70
2017-09-09T20:32:33.364Z,15.70
2017-09-09T20:35:01.024Z,15.70
2017-09-09T20:37:28.780Z,15.70
2017-09-09T20:39:56.639Z,15.70
2017-09-09T20:42:24.290Z,15.60
2017-09-09T20:44:52.724Z,15.60
2017-09-09T20:47:20.404Z,15.60
2017-09-09T20:49:48.041Z,15.60
2017-09-09T20:52:15.678Z,15.60
2017-09-09T20:54:43.324Z,15.70
2017-09-09T20:57:10.947Z,15.60
2017-09-09T20:59:38.647Z,15.70
2017-09-09T21:02:06.292Z,15.70
2017-09-09T21:04:33.932Z,15.60
2017-09-09T21:07:01.594Z,15.70
2017-09-09T21:09:29.239Z,15.60
2017-09-09T21:11:57.186Z,15.50
2017-09-09T21:14:24.823Z,15.40
2017-09-09T21:16:52.443Z,15.30
2017-09-09T21:19:20.218Z,15.30
2017-09-09T21:21:47.852Z,15.20
2017-09-09T21:24:15.516Z,15.20
2017-09-09T21:26:43.263Z,15.10
2017-09-09T21:29:10.887Z,15.20
2017-09-09T21:31:38.552Z,15.10
2017-09-09T21:34:06.187Z,15.00
2017-09-09T21:36:33.857Z,15.10
2017-09-09T21:39:01.574Z,15.10
2017-09-09T21:41:29.193Z,15.00
2017-09-09T21:43:56.874Z,15.00
2017-09-09T21:46:24.509Z,15.00
2017-09-09T21:48:52.181Z,14.90
2017-09-09T21:51:20.769Z,14.90
2017-09-09T21:53:48.402Z,14.70
2017-09-09T21:56:16.095Z,14.70
2017-09-09T21:58:43.715Z,14.80
2017-09-09T22:01:11.372Z,14.70
2017-09-09T22:03:38.992Z,14.70
2017-09-09T22:06:06.625Z,14.60
2017-09-09T22:08:34.274Z,14.60
2017-09-09T22:11:01.899Z,14.50
2017-09-09T22:13:29.556Z,14.50
2017-09-09T22:15:57.188Z,14.50
2017-09-09T22:18:24.806Z,14.50
2017-09-09T22:20:52.458Z,14.50
2017-09-09T22:23:20.097Z,14.50
2017-09-09T22:25:47.758Z,14.50
2017-09-09T22:28:15.396Z,14.50
2017-09-09T22:30:44.446Z,14.60
2017-09-09T22:33:12.098Z,14.50
2017-09-09T22:35:39.725Z,14.50
2017-09-09T22:38:07.388Z,14.40
2017-09-09T22:40:35.022Z,14.40
2017-09-09T22:43:02.651Z,14.40
2017-09-09T22:45:30.307Z,14.40
2017-09-09T22:47:57.940Z,14.30
2017-09-09T22:50:25.613Z,14.40
2017-09-09T22:52:53.239Z,14.40
2017-09-09T22:55:20.876Z,14.30
2017-09-09T22:57:48.524Z,14.20
2017-09-09T23:00:16.148Z,14.30
2017-09-09T23:02:43.803Z,14.30
2017-09-09T23:05:11.428Z,14.30
2017-09-09T23:07:39.065Z,14.30
2017-09-09T23:10:06.714Z,14.30
2017-09-09T23:12:34.335Z,14.30
2017-09-09T23:15:01.995Z,14.30
2017-09-09T23:17:29.627Z,14.30
2017-09-09T23:19:57.254Z,14.30
2017-09-09T23:22:24.912Z,14.30
2017-09-09T23:24:52.535Z,14.30
2017-09-09T23:27:20.193Z,14.30
2017-09-09T23:29:47.811Z,14.20
2017-09-09T23:32:15.431Z,14.20
2017-09-09T23:34:43.086Z,14.30
2017-09-09T23:37:10.712Z,14.30
2017-09-09T23:39:38.378Z,14.30
2017-09-09T23:42:05.999Z,14.40
2017-09-09T23:44:33.615Z,14.40
2017-09-09T23:47:01.275Z,14.40
2017-09-09T23:49:28.895Z,14.40
2017-09-09T23:51:56.548Z,14.40
2017-09-09T23:54:24.174Z,14.40
2017-09-09T23:56:51.816Z,14.40
2017-09-09T23:59:19.467Z,14.30
